Airfield :
LOGIN :

Register | Disclaimer

   EN    FR    IT 

 










Legend :    VFR   Marginal VFR   IFR   Intensive IFR   Very Intensive IFR
Visi :
Ceiling :
>= 8 km
>= 3000ft
5 to 8 km
1000 to 3000 ft
1500m to 5 km
500 to 1000 ft
800 to 1500m
200 to 500 ft
< 800m
< 200 ft
Symbols :   Thunderstorms  Fog  Heavy snow  Heavy precipitations  Wind > 20 kt
SIGMETs :     Misc.  Thunderstorms  Icing  Turbulence  Mountain Waves  Volcanic Ashes






- Airport Elevation : 357 ft
- IATA code : TUF


LFOT - Tours

CURRENT METAR :
  • 131430Z AUTO VRB02KT 6000 -RA BKN008/// BKN013/// BKN019/// ///CB 22/20 Q1012 TEMPO 4000 -TSRA SCT030CB BKN040

EXPIRED METARs :
  • 131400Z AUTO 12005KT 9999 -RA FEW012/// BKN018/// OVC023/// ///CB 21/19 Q1012 TEMPO 4000 -TSRA
  • 131330Z AUTO 10008KT 9999 BKN012/// OVC018/// ///CB 21/19 Q1012 TEMPO 4000 -TSRA SCT030CB BKN040
  • 131300Z AUTO 10008KT 070V130 9999 BKN008/// OVC013/// ///CB 21/20 Q1012 TEMPO 4000 -TSRA SCT030CB BKN040
  • 131230Z AUTO 10009KT 6000 -RA BKN006/// OVC012/// ///CB 20/19 Q1012 TEMPO 4000 -TSRA SCT030CB BKN040
  • 131200Z AUTO 11009KT 4100 -RA BR BKN010/// OVC017/// ///CB 20/19 Q1012 TEMPO -TSRA SCT030CB BKN040

TAF AMD TAF LFOT
Valid from the 13 at 13:00 until the 14 at 12:00 UTC


131325Z 1313/1412 16004KT 9999 SCT040
BECMG 1313/1315 20005KT
TEMPO 1313/1324 6000 -SHRA SCT030CB BKN040
PROB40
TEMPO 1313/1318 4000 -TSRA
BECMG 1400/1403 BKN020
BECMG 1409/1412 SCT030



MET'MAP, your aeronautical weather chart ! - Copyright ORBIFLY December 2007 - Disclaimer

ORBIFLY MET'MAP TEAM :

Programming & Development : Alexandra Zaïnal
Concept & original design : Baudouin d'Aumeries
Assistance for programming : Marc-Olivier Méhu
Technical & hardware support : Manuel Goepfert

Contact : metmap@orbifly.com




SOURCES & CREDITS :

   NOAA